Airfield :
LOGIN :

Register | Disclaimer

   EN    FR    IT 

 










Legend :    VFR   Marginal VFR   IFR   Intensive IFR   Very Intensive IFR
Visi :
Ceiling :
>= 8 km
>= 3000ft
5 to 8 km
1000 to 3000 ft
1500m to 5 km
500 to 1000 ft
800 to 1500m
200 to 500 ft
< 800m
< 200 ft
Symbols :   Thunderstorms  Fog  Heavy snow  Heavy precipitations  Wind > 20 kt
SIGMETs :     Misc.  Thunderstorms  Icing  Turbulence  Mountain Waves  Volcanic Ashes







- Airport Elevation : 978 ft
- IATA code : LNZ


LOWL - Linz

CURRENT METAR :
  • 202350Z AUTO 07005KT 9999 FEW013 BKN015 02/M00 Q1012

EXPIRED METARs :
  • 202320Z AUTO 09005KT 9999 FEW014 BKN015 02/M00 Q1012
  • 202250Z 08005KT 9999 SCT012 BKN016 02/00 Q1012 BECMG BKN012
  • 202220Z 10005KT 9999 SCT012 BKN018 02/M00 Q1012 BECMG BKN014
  • 202150Z 10005KT 9999 SCT012 BKN020 02/M00 Q1012 NOSIG
  • 202120Z 10005KT 9999 FEW010 BKN020 02/M00 Q1012 NOSIG

TAF TAF LOWL
Valid from the 21 at 00:00 until the 22 at 00:00 UTC


202315Z 2100/2124 08005KT 9999 BKN012 TX04/2120Z TN02/2102Z
PROB30 2103/2108 4000 -DZ BR OVC008
TEMPO 2110/2116 10010KT FEW008 BKN020
BECMG 2121/2124 4000 BR BKN008
No reported NOTAMs for that airfield.



MET'MAP, your aeronautical weather chart ! - Copyright ORBIFLY December 2007 - Disclaimer

ORBIFLY MET'MAP TEAM :

Programming & Development : Alexandra Zaïnal
Concept & Development : Baudouin d'Aumeries
Co-Development & Prog : Marc-Olivier Méhu
Technical & hardware support : Manuel Goepfert

Contact : metmap@orbifly.com




SOURCES & CREDITS :

   NOAA